Time;durP1;ratioP1;P1;durP2;ratioP2;P2;SDS_P1;SDS_P2;PMS_P1;PMS_P2;Temp;Humidity;BMP_temperature;BMP_pressure;BME280_temperature;BME280_humidity;BME280_pressure;Samples;Min_cycle;Max_cycle;Signal;HPM_P1;HPM_P2
2022/10/04 00:01:54;;;;;;;;;;;;;;;21.27;63.05;101669.53;5016266;28;4251;-66
2022/10/04 00:04:28;;;;;;;;;;;;;;;21.26;63.20;101676.69;5021126;28;4225;-68
2022/10/04 00:07:02;;;;;;;;;;;;;;;21.26;63.49;101668.06;5022665;28;5854;-66
2022/10/04 00:09:33;;;;;;;;;;;;;;;21.29;63.11;101675.41;5022909;28;4126;-67
2022/10/04 00:11:59;;;;;;;;;;;;;;;21.26;63.18;101668.81;5022344;28;3980;-66
2022/10/04 00:14:29;;;;;;;;;;;;;;;21.27;63.04;101673.16;5022451;28;4203;-66
2022/10/04 00:16:56;;;;;;;;;;;;;;;21.28;63.25;101677.56;5024700;28;4397;-66
2022/10/04 00:19:24;;;;;;;;;;;;;;;21.27;63.38;101678.19;5026241;28;4608;-67
2022/10/04 00:21:54;;;;;;;;;;;;;;;21.27;63.25;101672.44;5028795;28;4219;-66
2022/10/04 00:24:21;;;;;;;;;;;;;;;21.26;63.18;101680.31;5025423;28;4156;-68
2022/10/04 00:26:47;;;;;;;;;;;;;;;21.26;63.19;101680.31;5027843;28;4050;-66
2022/10/04 00:29:28;;;;;;;;;;;;;;;21.28;62.95;101676.78;5020962;28;4245;-66
2022/10/04 00:32:06;;;;;;;;;;;;;;;21.22;63.67;101685.84;5033506;28;4074;-66
2022/10/04 00:34:32;;;;;;;;;;;;;;;21.25;63.29;101684.56;5024466;28;4193;-66
2022/10/04 00:36:59;;;;;;;;;;;;;;;21.25;63.09;101683.81;5018785;28;4259;-66
2022/10/04 00:39:26;;;;;;;;;;;;;;;21.25;63.07;101684.56;5020384;28;4089;-67
2022/10/04 00:41:55;;;;;;;;;;;;;;;21.27;63.25;101690.44;5021358;28;5186;-66
2022/10/04 00:44:23;;;;;;;;;;;;;;;21.27;63.24;101686.81;5013012;28;4238;-67
2022/10/04 00:46:49;;;;;;;;;;;;;;;21.26;63.30;101691.84;5026364;28;4248;-66
2022/10/04 00:49:15;;;;;;;;;;;;;;;21.24;63.28;101683.09;5020837;28;4329;-67
2022/10/04 00:51:43;;;;;;;;;;;;;;;21.26;63.34;101680.31;5030857;28;5113;-66
2022/10/04 00:54:29;;;;;;;;;;;;;;;21.25;63.35;101686.72;5017311;28;4241;-66
2022/10/04 00:57:06;;;;;;;;;;;;;;;21.26;62.93;101691.09;5024263;28;4167;-66
2022/10/04 00:59:48;;;;;;;;;;;;;;;21.26;63.04;101691.09;5024528;28;4170;-66
2022/10/04 01:02:19;;;;;;;;;;;;;;;21.26;63.20;101679.59;5022453;28;5432;-66
2022/10/04 01:04:50;;;;;;;;;;;;;;;21.23;63.40;101687.34;5030003;28;4209;-66
2022/10/04 01:07:17;;;;;;;;;;;;;;;21.25;63.23;101684.56;5023653;28;4311;-66
2022/10/04 01:09:45;;;;;;;;;;;;;;;21.26;62.87;101691.84;5019833;28;4201;-66
2022/10/04 01:12:24;;;;;;;;;;;;;;;21.25;63.46;101683.81;5020345;28;4027;-66
2022/10/04 01:14:54;;;;;;;;;;;;;;;21.26;63.30;101691.84;5024018;28;5544;-66
2022/10/04 01:17:20;;;;;;;;;;;;;;;21.27;63.01;101678.94;5025563;28;4212;-66
2022/10/04 01:19:48;;;;;;;;;;;;;;;21.24;63.09;101682.34;5009633;28;5316;-66
2022/10/04 01:22:28;;;;;;;;;;;;;;;21.25;63.07;101681.69;5011675;28;4197;-66
2022/10/04 01:24:54;;;;;;;;;;;;;;;21.26;63.19;101673.81;5017662;28;5224;-66
2022/10/04 01:27:40;;;;;;;;;;;;;;;21.27;62.92;101678.19;5011152;28;4169;-68
2022/10/04 01:30:08;;;;;;;;;;;;;;;21.23;63.45;101677.94;5010182;28;4108;-66
2022/10/04 01:32:34;;;;;;;;;;;;;;;21.21;63.58;101675.72;5013852;28;5279;-66
2022/10/04 01:35:00;;;;;;;;;;;;;;;21.23;63.30;101669.31;5014837;28;4222;-66
2022/10/04 01:37:27;;;;;;;;;;;;;;;21.25;63.47;101672.31;5022777;28;4519;-66
2022/10/04 01:39:54;;;;;;;;;;;;;;;21.23;63.12;101670.06;5021741;28;4526;-66
2022/10/04 01:42:26;;;;;;;;;;;;;;;21.21;63.33;101672.84;5010282;28;4211;-67
2022/10/04 01:44:55;;;;;;;;;;;;;;;21.20;63.57;101656.94;5020745;28;4145;-66
2022/10/04 01:47:23;;;;;;;;;;;;;;;21.22;63.19;101659.94;5027798;28;4213;-67
2022/10/04 01:49:50;;;;;;;;;;;;;;;21.20;63.65;101654.06;5025050;28;4077;-66
2022/10/04 01:52:19;;;;;;;;;;;;;;;21.19;63.79;101661.22;5026175;28;4220;-66
2022/10/04 01:54:47;;;;;;;;;;;;;;;21.21;62.96;101666.31;5024364;28;5472;-66
2022/10/04 01:57:18;;;;;;;;;;;;;;;21.23;63.08;101657.78;5022346;28;4597;-66
2022/10/04 01:59:51;;;;;;;;;;;;;;;21.23;63.20;101663.56;5027718;28;4216;-66
2022/10/04 02:02:20;;;;;;;;;;;;;;;21.23;63.08;101655.66;5028643;28;5226;-66
2022/10/04 02:04:51;;;;;;;;;;;;;;;21.21;63.48;101661.31;5016700;28;4190;-66
2022/10/04 02:07:17;;;;;;;;;;;;;;;21.22;63.36;101651.28;5027166;28;4176;-66
2022/10/04 02:09:45;;;;;;;;;;;;;;;21.25;62.78;101652.88;5027893;28;4493;-66
2022/10/04 02:12:18;;;;;;;;;;;;;;;21.20;63.28;101654.06;5029231;28;5349;-66
2022/10/04 02:14:47;;;;;;;;;;;;;;;21.20;63.59;101654.06;5028916;28;4080;-66
2022/10/04 02:17:14;;;;;;;;;;;;;;;21.20;63.59;101648.28;5025243;28;4099;-66
2022/10/04 02:19:41;;;;;;;;;;;;;;;21.18;63.46;101645.28;5022632;28;4341;-66
2022/10/04 02:22:08;;;;;;;;;;;;;;;21.23;62.95;101652.78;5022628;28;5371;-66
2022/10/04 02:24:35;;;;;;;;;;;;;;;21.20;63.45;101654.06;5024642;28;4245;-66
2022/10/04 02:27:02;;;;;;;;;;;;;;;21.22;62.76;101654.16;5020696;28;4281;-66
2022/10/04 02:29:28;;;;;;;;;;;;;;;21.23;63.03;101652.78;5019316;28;4205;-66
2022/10/04 02:34:39;;;;;;;;;;;;;;;21.22;63.04;101651.28;5016355;28;4391;-66
2022/10/04 02:37:06;;;;;;;;;;;;;;;21.22;62.77;101657.06;5030337;28;4913;-66
2022/10/04 02:39:37;;;;;;;;;;;;;;;21.22;62.76;101657.06;5018376;28;4172;-67
2022/10/04 02:42:18;;;;;;;;;;;;;;;21.22;62.62;101651.28;5021406;28;5309;-67
2022/10/04 02:44:49;;;;;;;;;;;;;;;21.23;62.63;101649.16;5018211;28;4213;-67
2022/10/04 02:47:16;;;;;;;;;;;;;;;21.22;62.73;101642.66;5026990;28;4068;-66
2022/10/04 02:49:47;;;;;;;;;;;;;;;21.22;62.66;101651.28;5019087;28;4094;-67
2022/10/04 02:52:32;;;;;;;;;;;;;;;21.22;63.10;101644.78;5027407;28;4188;-66
2022/10/04 02:55:01;;;;;;;;;;;;;;;21.15;63.92;101640.81;5018173;28;4248;-67
2022/10/04 02:57:28;;;;;;;;;;;;;;;21.15;64.00;101637.94;5023333;28;4215;-66
2022/10/04 03:00:02;;;;;;;;;;;;;;;21.18;63.86;101642.41;5009572;28;4233;-66
2022/10/04 03:02:29;;;;;;;;;;;;;;;21.19;63.26;101643.94;5026060;28;4420;-66
2022/10/04 03:05:06;;;;;;;;;;;;;;;21.20;63.42;101639.66;5008564;28;4262;-66
2022/10/04 03:07:32;;;;;;;;;;;;;;;21.22;63.24;101639.75;5028233;28;4207;-66
2022/10/04 03:09:59;;;;;;;;;;;;;;;21.24;63.46;101648.53;5019465;28;5341;-66
2022/10/04 03:12:25;;;;;;;;;;;;;;;21.24;63.46;101651.41;5035155;28;4217;-67
2022/10/04 03:14:52;;;;;;;;;;;;;;;21.25;63.70;101632.72;5018302;28;4248;-67
2022/10/04 03:17:18;;;;;;;;;;;;;;;21.25;63.42;101644.25;5023477;28;4052;-66
2022/10/04 03:19:46;;;;;;;;;;;;;;;21.24;63.57;101642.75;5023860;28;4125;-67
2022/10/04 03:22:12;;;;;;;;;;;;;;;21.25;63.56;101644.25;5025808;28;4472;-66
2022/10/04 03:24:45;;;;;;;;;;;;;;;21.22;63.88;101645.53;5022268;28;4081;-66
2022/10/04 03:27:13;;;;;;;;;;;;;;;21.26;63.52;101642.88;5018067;28;4231;-66
2022/10/04 03:29:39;;;;;;;;;;;;;;;21.19;63.26;101635.28;5020102;28;5313;-59
2022/10/04 03:32:06;;;;;;;;;;;;;;;21.23;63.12;101641.25;5026933;28;4284;-60
2022/10/04 03:34:34;;;;;;;;;;;;;;;21.23;62.97;101641.25;5021705;28;4220;-61
2022/10/04 03:37:00;;;;;;;;;;;;;;;21.21;63.42;101644.03;4995884;28;4078;-61
2022/10/04 03:39:29;;;;;;;;;;;;;;;21.21;63.45;101638.28;5022573;28;5499;-62
2022/10/04 03:41:57;;;;;;;;;;;;;;;21.22;63.69;101633.25;5024869;28;4240;-61
2022/10/04 03:44:23;;;;;;;;;;;;;;;21.21;63.94;101638.28;5027079;28;4235;-62
2022/10/04 03:46:49;;;;;;;;;;;;;;;21.22;63.86;101628.25;5018602;28;4067;-62
2022/10/04 03:49:17;;;;;;;;;;;;;;;21.20;63.78;101633.88;5029932;28;4252;-61
2022/10/04 03:51:44;;;;;;;;;;;;;;;21.18;64.05;101633.78;5028177;28;4204;-61
2022/10/04 03:54:11;;;;;;;;;;;;;;;21.20;63.80;101642.53;5024166;28;4067;-61
2022/10/04 03:56:37;;;;;;;;;;;;;;;21.20;64.15;101648.28;5004407;28;4179;-61
2022/10/04 03:59:04;;;;;;;;;;;;;;;21.21;63.80;101644.03;5024591;28;4054;-61
2022/10/04 04:01:33;;;;;;;;;;;;;;;21.24;63.80;101644.91;5028576;28;5362;-61
2022/10/04 04:04:11;;;;;;;;;;;;;;;21.24;63.80;101642.03;5031730;28;5324;-61
2022/10/04 04:07:04;;;;;;;;;;;;;;;21.24;63.60;101648.53;5022998;28;5362;-61
2022/10/04 04:09:38;;;;;;;;;;;;;;;21.25;63.39;101649.25;5011262;28;4384;-61
2022/10/04 04:12:13;;;;;;;;;;;;;;;21.25;63.66;101655.75;5014035;28;4230;-61
2022/10/04 04:14:40;;;;;;;;;;;;;;;21.26;63.69;101651.53;5014574;28;4224;-61
2022/10/04 04:17:16;;;;;;;;;;;;;;;21.28;62.95;101648.75;5025631;28;4292;-62
2022/10/04 04:19:43;;;;;;;;;;;;;;;21.25;63.41;101650.00;5030928;28;4198;-62
2022/10/04 04:22:15;;;;;;;;;;;;;;;21.25;63.53;101650.00;5037811;28;4374;-61
2022/10/04 04:24:42;;;;;;;;;;;;;;;21.27;62.94;101652.25;5021735;28;4163;-62
2022/10/04 04:27:09;;;;;;;;;;;;;;;21.23;64.02;101649.88;5026022;28;4183;-62
2022/10/04 04:29:41;;;;;;;;;;;;;;;21.26;63.71;101650.78;5029416;28;4189;-62
2022/10/04 04:32:10;;;;;;;;;;;;;;;21.26;64.03;101657.28;5019189;28;4184;-62
2022/10/04 04:34:51;;;;;;;;;;;;;;;21.25;63.78;101655.75;5003553;28;4274;-62
2022/10/04 04:37:18;;;;;;;;;;;;;;;21.25;63.70;101655.03;5026765;28;5324;-62
2022/10/04 04:39:48;;;;;;;;;;;;;;;21.24;63.60;101659.31;5024138;28;4248;-62
2022/10/04 04:42:20;;;;;;;;;;;;;;;21.22;63.92;101656.31;5019679;28;4565;-61
2022/10/04 04:44:50;;;;;;;;;;;;;;;21.24;63.68;101659.31;5038334;28;4082;-61
2022/10/04 04:47:49;;;;;;;;;;;;;;;21.24;63.57;101660.03;5029719;28;4205;-62
2022/10/04 04:50:19;;;;;;;;;;;;;;;21.22;64.31;101656.31;5009592;28;4147;-62
2022/10/04 04:52:47;;;;;;;;;;;;;;;21.23;63.44;101658.53;5036589;28;4479;-69
2022/10/04 04:55:20;;;;;;;;;;;;;;;21.25;64.17;101655.75;5035765;28;4183;-76
2022/10/04 04:57:46;;;;;;;;;;;;;;;21.27;63.75;101658.75;5025343;28;5290;-75
2022/10/04 05:00:15;;;;;;;;;;;;;;;21.24;64.17;101659.31;5016164;28;4218;-75
2022/10/04 05:02:41;;;;;;;;;;;;;;;21.23;64.06;101658.53;5028276;28;4139;-72
2022/10/04 05:05:14;;;;;;;;;;;;;;;21.26;63.67;101663.03;5026257;28;5155;-68
2022/10/04 05:07:42;;;;;;;;;;;;;;;21.27;63.86;101664.53;5018913;28;4194;-67
2022/10/04 05:10:18;;;;;;;;;;;;;;;21.33;63.58;101661.25;5020119;28;5346;-79
2022/10/04 05:12:45;;;;;;;;;;;;;;;21.64;63.42;101666.53;5023330;28;4235;-75
2022/10/04 05:15:11;;;;;;;;;;;;;;;21.80;63.51;101666.66;5028813;28;4235;-79
2022/10/04 05:17:38;;;;;;;;;;;;;;;21.83;63.28;101664.63;5001363;28;5483;-71
2022/10/04 05:20:04;;;;;;;;;;;;;;;21.81;63.63;101667.44;5011064;28;4820;-74
2022/10/04 05:22:30;;;;;;;;;;;;;;;21.59;64.58;101664.09;5024846;28;4267;-73
2022/10/04 05:24:59;;;;;;;;;;;;;;;21.76;63.39;101666.44;5019757;28;4346;-72
2022/10/04 05:27:27;;;;;;;;;;;;;;;21.78;63.88;101665.81;5013192;28;5260;-70
2022/10/04 05:30:09;;;;;;;;;;;;;;;21.75;64.40;101671.47;5029696;28;5409;-65
2022/10/04 05:32:49;;;;;;;;;;;;;;;21.88;64.05;101672.88;5030064;28;4792;-71
2022/10/04 05:35:16;;;;;;;;;;;;;;;21.94;63.75;101681.88;5020035;28;4283;-73
2022/10/04 05:37:57;;;;;;;;;;;;;;;21.93;63.75;101673.84;5018119;28;4369;-69
2022/10/04 05:40:31;;;;;;;;;;;;;;;21.95;63.91;101677.56;5019470;28;4241;-66
2022/10/04 05:42:58;;;;;;;;;;;;;;;21.96;63.91;101681.94;5033381;28;4162;-68
2022/10/04 05:45:27;;;;;;;;;;;;;;;22.03;63.67;101677.25;5029293;28;4514;-66
2022/10/04 05:47:54;;;;;;;;;;;;;;;22.12;63.50;101679.16;5028650;28;4072;-64
2022/10/04 05:50:33;;;;;;;;;;;;;;;22.04;63.83;101684.53;5032846;28;4555;-67
2022/10/04 05:53:13;;;;;;;;;;;;;;;22.13;63.01;101674.91;5026930;28;4632;-67
2022/10/04 05:55:41;;;;;;;;;;;;;;;22.06;63.18;101690.41;5028735;28;5591;-61
2022/10/04 05:58:29;;;;;;;;;;;;;;;21.89;63.86;101679.38;5026173;28;4219;-62
2022/10/04 06:01:06;;;;;;;;;;;;;;;21.95;63.66;101689.09;5031133;28;5750;-61
2022/10/04 06:03:51;;;;;;;;;;;;;;;22.04;63.73;101689.56;5012702;28;4257;-62
2022/10/04 06:06:20;;;;;;;;;;;;;;;22.08;63.21;101684.75;5025194;28;4088;-61
2022/10/04 06:09:05;;;;;;;;;;;;;;;22.16;63.19;101690.19;5020877;28;5602;-62
2022/10/04 06:11:41;;;;;;;;;;;;;;;22.30;62.46;101690.19;5011108;28;4185;-64
2022/10/04 06:14:14;;;;;;;;;;;;;;;22.14;63.08;101693.69;5030026;28;4440;-65
2022/10/04 06:16:44;;;;;;;;;;;;;;;22.08;63.20;101689.75;5015087;28;4289;-62
2022/10/04 06:19:17;;;;;;;;;;;;;;;22.03;63.37;101683.00;5015520;28;4267;-65
2022/10/04 06:21:55;;;;;;;;;;;;;;;22.05;63.21;101691.78;5023494;28;3987;-64
2022/10/04 06:24:24;;;;;;;;;;;;;;;22.21;63.07;101685.38;5015773;28;4053;-62
2022/10/04 06:26:58;;;;;;;;;;;;;;;22.20;62.85;101683.88;5016862;28;4301;-62
2022/10/04 06:29:25;;;;;;;;;;;;;;;22.23;62.54;101688.38;5018241;28;4797;-64
2022/10/04 06:32:06;;;;;;;;;;;;;;;22.20;62.79;101690.41;5025104;28;4504;-65
2022/10/04 06:34:36;;;;;;;;;;;;;;;22.14;62.84;101687.94;5027613;28;5318;-64
2022/10/04 06:37:05;;;;;;;;;;;;;;;22.11;62.95;101689.22;5017846;28;4662;-64
2022/10/04 06:39:44;;;;;;;;;;;;;;;22.15;62.82;101688.66;5019857;28;4076;-63
2022/10/04 06:42:32;;;;;;;;;;;;;;;22.13;62.84;101691.47;5020493;28;4258;-63
2022/10/04 06:45:18;;;;;;;;;;;;;;;22.17;63.01;101691.66;5033738;28;4247;-62
2022/10/04 06:48:03;;;;;;;;;;;;;;;22.15;62.71;101700.97;5017943;28;4227;-60
2022/10/04 06:50:33;;;;;;;;;;;;;;;22.08;63.09;101693.41;5007110;28;4577;-61
2022/10/04 06:53:09;;;;;;;;;;;;;;;21.99;62.48;101703.00;5024761;28;4241;-62
2022/10/04 06:55:48;;;;;;;;;;;;;;;21.17;58.53;101698.53;5021666;28;4574;-66
2022/10/04 06:58:37;;;;;;;;;;;;;;;21.25;59.80;101690.34;5009707;28;4567;-66
2022/10/04 07:01:30;;;;;;;;;;;;;;;21.50;59.29;101694.59;5014537;28;4596;-66
2022/10/04 07:04:00;;;;;;;;;;;;;;;21.59;61.44;101693.66;5037467;28;5531;-65
2022/10/04 07:06:28;;;;;;;;;;;;;;;21.60;62.44;101700.94;5046023;28;4916;-65
2022/10/04 07:08:58;;;;;;;;;;;;;;;21.56;62.62;101705.72;5044053;28;4697;-67
2022/10/04 07:11:25;;;;;;;;;;;;;;;21.56;62.46;101712.22;5041272;28;4595;-67
2022/10/04 07:13:55;;;;;;;;;;;;;;;21.59;62.30;101716.72;5037596;28;4602;-67
2022/10/04 07:16:21;;;;;;;;;;;;;;;21.57;62.80;101718.75;5037685;28;4724;-68
2022/10/04 07:18:47;;;;;;;;;;;;;;;21.58;62.28;101718.13;5025456;28;4170;-67
2022/10/04 07:21:14;;;;;;;;;;;;;;;21.57;62.24;101724.50;5027578;28;4219;-67
2022/10/04 07:23:50;;;;;;;;;;;;;;;21.55;62.35;101728.00;5015466;28;4265;-67
2022/10/04 07:26:22;;;;;;;;;;;;;;;21.53;62.65;101733.66;5022532;28;4198;-69
2022/10/04 07:31:34;;;;;;;;;;;;;;;21.41;61.93;101727.97;5025810;28;4159;-69
2022/10/04 07:34:01;;;;;;;;;;;;;;;21.83;61.52;101730.94;5011865;28;4228;-68
2022/10/04 07:36:37;;;;;;;;;;;;;;;22.14;59.45;101739.84;5023793;28;5601;-70
2022/10/04 07:39:06;;;;;;;;;;;;;;;21.80;58.57;101729.34;5016645;28;4604;-70
2022/10/04 07:41:36;;;;;;;;;;;;;;;21.57;59.15;101733.91;5020650;28;5230;-70
2022/10/04 07:44:04;;;;;;;;;;;;;;;21.61;58.91;101725.47;5015461;28;4202;-63
2022/10/04 07:46:36;;;;;;;;;;;;;;;21.76;57.69;101729.88;5020160;28;4168;-63
2022/10/04 07:49:02;;;;;;;;;;;;;;;21.85;57.44;101737.59;5012963;28;5322;-63
2022/10/04 07:51:31;;;;;;;;;;;;;;;21.87;56.77;101734.06;5025774;28;4359;-65
2022/10/04 07:54:00;;;;;;;;;;;;;;;21.81;57.11;101736.63;5029279;28;4086;-67
2022/10/04 07:56:37;;;;;;;;;;;;;;;21.82;56.72;101743.88;5031009;28;4943;-65
2022/10/04 07:59:17;;;;;;;;;;;;;;;21.80;56.81;101743.78;5027056;28;4255;-64
2022/10/04 08:01:53;;;;;;;;;;;;;;;21.79;56.55;101745.16;5036885;28;4207;-66
2022/10/04 08:04:19;;;;;;;;;;;;;;;21.84;56.27;101746.88;5022175;28;4431;-71
2022/10/04 08:06:52;;;;;;;;;;;;;;;21.91;56.47;101760.25;5024546;28;4370;-69
2022/10/04 08:09:42;;;;;;;;;;;;;;;22.00;56.02;101764.31;5021533;28;4258;-64
2022/10/04 08:12:18;;;;;;;;;;;;;;;22.00;55.52;101770.09;5000029;28;5008;-66
2022/10/04 08:14:51;;;;;;;;;;;;;;;22.12;55.23;101762.81;5038783;28;4884;-66
2022/10/04 08:17:44;;;;;;;;;;;;;;;21.94;56.09;101767.59;5033747;28;4063;-70
2022/10/04 08:20:25;;;;;;;;;;;;;;;22.08;55.26;101767.63;5024263;28;4045;-70
2022/10/04 08:22:51;;;;;;;;;;;;;;;22.05;55.06;101766.75;5030410;28;4198;-69
2022/10/04 08:25:26;;;;;;;;;;;;;;;22.03;54.91;101763.78;5036924;28;5268;-69
2022/10/04 08:31:08;;;;;;;;;;;;;;;21.94;54.62;101768.38;5041057;28;5140;-70
2022/10/04 08:33:55;;;;;;;;;;;;;;;21.96;54.27;101759.06;5029729;28;5248;-68
2022/10/04 08:36:31;;;;;;;;;;;;;;;21.88;54.64;101770.91;5037420;28;4434;-65
2022/10/04 08:38:58;;;;;;;;;;;;;;;21.83;54.63;101757.66;5037252;28;4609;-65
2022/10/04 08:41:44;;;;;;;;;;;;;;;21.90;54.64;101768.16;5040498;28;4067;-64
2022/10/04 08:44:26;;;;;;;;;;;;;;;21.88;54.61;101770.91;5027296;28;4331;-63
2022/10/04 08:47:12;;;;;;;;;;;;;;;21.91;54.70;101769.63;5014086;28;4010;-64
2022/10/04 08:49:43;;;;;;;;;;;;;;;21.89;54.23;101772.41;5019834;28;4184;-62
2022/10/04 08:52:19;;;;;;;;;;;;;;;21.57;54.84;101765.59;5016728;28;4022;-68
2022/10/04 08:55:04;;;;;;;;;;;;;;;21.52;55.22;101772.53;5021864;28;4206;-66
2022/10/04 08:57:33;;;;;;;;;;;;;;;21.54;56.22;101766.88;5015949;28;4510;-61
2022/10/04 09:00:19;;;;;;;;;;;;;;;21.91;55.94;101768.88;5017050;28;5306;-63
2022/10/04 09:03:05;;;;;;;;;;;;;;;22.02;55.65;101776.72;5014152;28;4270;-60
2022/10/04 09:05:52;;;;;;;;;;;;;;;22.04;55.81;101773.94;5018245;28;4176;-60
2022/10/04 09:08:27;;;;;;;;;;;;;;;21.98;56.04;101773.59;5018950;28;4318;-60
2022/10/04 09:11:00;;;;;;;;;;;;;;;22.02;56.58;101773.81;5021329;28;4376;-60
2022/10/04 09:13:35;;;;;;;;;;;;;;;22.09;56.72;101767.00;5023653;28;4182;-59
2022/10/04 09:16:02;;;;;;;;;;;;;;;22.22;56.28;101773.44;5016198;28;5215;-60
2022/10/04 09:18:44;;;;;;;;;;;;;;;22.16;56.85;101763.03;5023673;28;5112;-60
2022/10/04 09:21:11;;;;;;;;;;;;;;;22.21;56.99;101771.91;5025797;28;5338;-59
2022/10/04 09:23:55;;;;;;;;;;;;;;;22.14;57.49;101771.59;5025585;28;4257;-60
2022/10/04 09:26:22;;;;;;;;;;;;;;;22.17;57.34;101766.66;5024176;28;4218;-60
2022/10/04 09:29:01;;;;;;;;;;;;;;;22.29;57.24;101766.63;5023703;28;4161;-62
2022/10/04 09:31:30;;;;;;;;;;;;;;;22.20;57.55;101770.44;5017298;28;5201;-61
2022/10/04 09:34:03;;;;;;;;;;;;;;;21.95;58.40;101772.75;5019024;28;4251;-62
2022/10/04 09:37:07;;;;;;;;;;;;;;;22.00;57.93;101767.94;5021537;28;4142;-61
2022/10/04 09:39:40;;;;;;;;;;;;;;;22.20;57.90;101773.31;5001350;28;4341;-58
2022/10/04 09:42:26;;;;;;;;;;;;;;;22.24;57.63;101771.44;5002682;28;4266;-57
2022/10/04 09:45:05;;;;;;;;;;;;;;;22.21;57.90;101771.91;5027937;28;4166;-58
2022/10/04 09:47:41;;;;;;;;;;;;;;;22.14;58.47;101774.47;5045403;28;4081;-62
2022/10/04 09:50:12;;;;;;;;;;;;;;;22.07;58.78;101774.78;5040988;28;3999;-58
2022/10/04 09:52:57;;;;;;;;;;;;;;;22.06;58.82;101765.41;5042615;28;5270;-60
2022/10/04 09:55:27;;;;;;;;;;;;;;;22.27;58.32;101769.41;5045431;28;4220;-59
2022/10/04 09:57:56;;;;;;;;;;;;;;;22.17;58.39;101767.44;5043760;28;5378;-60
2022/10/04 10:00:23;;;;;;;;;;;;;;;22.04;58.86;101762.41;5023088;28;4198;-59
2022/10/04 10:02:55;;;;;;;;;;;;;;;22.09;58.98;101761.22;5028291;28;4317;-60
2022/10/04 10:05:23;;;;;;;;;;;;;;;22.21;58.49;101766.16;5024146;28;4214;-60
2022/10/04 10:08:08;;;;;;;;;;;;;;;22.28;58.52;101765.09;5031374;28;5275;-60
2022/10/04 10:16:28;;;;;;;;;;;;;;;22.50;58.27;101762.66;4977052;28;64405;-61
2022/10/04 10:19:18;;;;;;;;;;;;;;;22.74;57.72;101768.91;4976987;27;12678;-61
2022/10/04 10:21:44;;;;;;;;;;;;;;;22.61;57.34;101766.78;5004465;28;72705;-65
2022/10/04 10:24:25;;;;;;;;;;;;;;;22.48;58.28;101771.94;5025426;28;7567;-65
2022/10/04 10:26:54;;;;;;;;;;;;;;;22.51;58.34;101762.00;5022694;28;13582;-64
2022/10/04 10:29:35;;;;;;;;;;;;;;;22.50;58.20;101769.16;5031209;28;3013;-65
2022/10/04 10:32:06;;;;;;;;;;;;;;;22.59;58.10;101764.56;5034087;28;3051;-65
2022/10/04 10:34:45;;;;;;;;;;;;;;;22.72;58.04;101775.34;5057957;28;3206;-61
2022/10/04 10:37:16;;;;;;;;;;;;;;;22.89;57.83;101771.13;5016836;28;62573;-63
2022/10/04 10:39:52;;;;;;;;;;;;;;;22.92;57.42;101766.22;5041689;28;3220;-61
2022/10/04 10:42:33;;;;;;;;;;;;;;;22.76;57.61;101771.91;5033130;28;3204;-64
2022/10/04 10:45:14;;;;;;;;;;;;;;;22.73;57.95;101767.44;5026942;28;3305;-62
2022/10/04 10:48:00;;;;;;;;;;;;;;;22.72;58.11;101752.25;5034880;28;3109;-63
2022/10/04 10:50:58;;;;;;;;;;;;;;;22.79;58.02;101759.06;5026854;28;3190;-61
2022/10/04 10:53:28;;;;;;;;;;;;;;;22.74;58.22;101751.59;5025294;28;3040;-61
2022/10/04 10:56:14;;;;;;;;;;;;;;;22.87;57.71;101755.84;5030113;28;3016;-61
2022/10/04 10:58:46;;;;;;;;;;;;;;;22.96;57.42;101758.50;5023830;28;2797;-60
2022/10/04 11:01:47;;;;;;;;;;;;;;;22.74;58.04;101752.34;5026742;28;3024;-61
2022/10/04 11:04:34;;;;;;;;;;;;;;;22.76;57.98;101755.31;4974546;28;2964;-64
2022/10/04 11:07:19;;;;;;;;;;;;;;;22.28;57.28;101760.06;5021650;28;3112;-64
2022/10/04 11:09:53;;;;;;;;;;;;;;;22.07;59.41;101761.09;5024475;28;3279;-64
2022/10/04 11:12:26;;;;;;;;;;;;;;;22.11;59.55;101764.22;5041107;28;2849;-66
2022/10/04 11:15:01;;;;;;;;;;;;;;;22.01;60.20;101749.25;5027612;28;3095;-65
2022/10/04 11:17:38;;;;;;;;;;;;;;;22.06;59.59;101762.50;5025022;28;3207;-63
2022/10/04 11:20:23;;;;;;;;;;;;;;;22.07;59.83;101757.47;5025802;28;4959;-63
2022/10/04 11:23:00;;;;;;;;;;;;;;;22.44;59.44;101748.63;5023058;28;4836;-63
2022/10/04 11:25:40;;;;;;;;;;;;;;;22.51;59.16;101753.34;5028148;28;3235;-63
2022/10/04 11:28:29;;;;;;;;;;;;;;;22.57;59.01;101750.03;5029251;28;3093;-64
2022/10/04 11:31:12;;;;;;;;;;;;;;;22.64;58.46;101742.44;5014076;28;3093;-66
2022/10/04 11:33:43;;;;;;;;;;;;;;;22.67;58.38;101735.34;5019317;28;4401;-69
2022/10/04 11:36:27;;;;;;;;;;;;;;;22.57;58.83;101739.22;5022227;28;3162;-64
2022/10/04 11:39:12;;;;;;;;;;;;;;;22.61;58.72;101744.47;5027236;28;3380;-67
2022/10/04 11:41:46;;;;;;;;;;;;;;;22.73;58.67;101732.78;5015182;28;3289;-64
2022/10/04 11:44:15;;;;;;;;;;;;;;;22.71;58.61;101735.56;5012309;28;2981;-63
2022/10/04 11:46:44;;;;;;;;;;;;;;;22.68;58.85;101737.59;5008157;28;3565;-63
2022/10/04 11:49:29;;;;;;;;;;;;;;;22.72;58.63;101728.38;5018908;28;2823;-63
2022/10/04 11:51:59;;;;;;;;;;;;;;;22.68;58.93;101737.59;5015199;28;3108;-62
2022/10/04 11:54:30;;;;;;;;;;;;;;;22.57;58.62;101726.94;5015355;28;3596;-63
2022/10/04 11:57:03;;;;;;;;;;;;;;;22.58;58.66;101725.53;5014921;28;4728;-67
2022/10/04 11:59:36;;;;;;;;;;;;;;;22.69;58.47;101727.53;5003666;28;3057;-65
2022/10/04 12:02:15;;;;;;;;;;;;;;;22.73;58.50;101718.34;5019536;28;2991;-65
2022/10/04 12:04:52;;;;;;;;;;;;;;;22.36;59.27;101719.38;5025040;28;3484;-65
2022/10/04 12:07:21;;;;;;;;;;;;;;;22.28;59.53;101718.94;5012596;28;3001;-68
2022/10/04 12:09:53;;;;;;;;;;;;;;;22.47;59.17;101711.97;5020885;28;3041;-67
2022/10/04 12:12:46;;;;;;;;;;;;;;;22.53;59.12;101715.91;5021222;28;2981;-67
2022/10/04 12:15:35;;;;;;;;;;;;;;;22.64;59.20;101710.66;5021684;28;2974;-70
2022/10/04 12:18:11;;;;;;;;;;;;;;;22.85;58.99;101701.63;5014407;28;3001;-65
2022/10/04 12:20:40;;;;;;;;;;;;;;;22.92;58.74;101703.41;5015043;28;3109;-69
2022/10/04 12:23:21;;;;;;;;;;;;;;;23.01;58.85;101698.81;5029904;28;3089;-68
2022/10/04 12:25:52;;;;;;;;;;;;;;;23.04;58.61;101703.28;5017880;28;1757;-73
2022/10/04 12:28:19;;;;;;;;;;;;;;;22.96;59.07;101697.84;5031532;28;1881;-70
2022/10/04 12:30:53;;;;;;;;;;;;;;;22.72;59.21;101713.94;5013518;28;2907;-68
2022/10/04 12:33:22;;;;;;;;;;;;;;;23.16;58.19;101709.66;5031464;28;2906;-69
2022/10/04 12:36:01;;;;;;;;;;;;;;;23.34;58.00;101706.91;5015156;28;2967;-69
2022/10/04 12:38:42;;;;;;;;;;;;;;;23.53;56.97;101696.22;5016749;28;2899;-67
2022/10/04 12:41:23;;;;;;;;;;;;;;;23.56;57.03;101697.78;5010108;28;3101;-66
2022/10/04 12:44:08;;;;;;;;;;;;;;;23.50;57.35;101695.38;5014101;28;4535;-63
2022/10/04 12:46:41;;;;;;;;;;;;;;;22.77;58.32;101704.13;5012261;28;3093;-68
2022/10/04 12:49:20;;;;;;;;;;;;;;;22.42;56.32;101707.38;5011758;28;3319;-67
2022/10/04 12:51:52;;;;;;;;;;;;;;;22.31;55.70;101694.56;5012739;28;3064;-62
2022/10/04 12:54:37;;;;;;;;;;;;;;;22.61;56.03;101694.63;5018799;28;2977;-65
2022/10/04 12:57:12;;;;;;;;;;;;;;;22.95;55.62;101696.34;5011378;28;3081;-64
2022/10/04 12:59:51;;;;;;;;;;;;;;;23.11;55.80;101692.78;5015850;28;2495;-67
2022/10/04 13:02:19;;;;;;;;;;;;;;;23.20;55.61;101697.53;5017778;28;3922;-66
2022/10/04 13:04:47;;;;;;;;;;;;;;;23.45;55.45;101692.94;5013791;28;3101;-63
2022/10/04 13:07:29;;;;;;;;;;;;;;;23.53;54.86;101702.00;5009650;28;2990;-64
2022/10/04 13:10:12;;;;;;;;;;;;;;;23.55;55.01;101684.75;5017233;28;2954;-64
2022/10/04 13:13:09;;;;;;;;;;;;;;;23.60;55.03;101690.03;5014632;28;2737;-66
2022/10/04 13:15:57;;;;;;;;;;;;;;;23.67;54.88;101691.06;5014970;28;3033;-66
2022/10/04 13:18:46;;;;;;;;;;;;;;;23.60;54.96;101677.75;5017367;28;3262;-65
2022/10/04 13:21:39;;;;;;;;;;;;;;;23.55;55.34;101678.97;5026270;28;3157;-65
2022/10/04 13:24:14;;;;;;;;;;;;;;;23.58;55.41;101671.88;5003783;28;3021;-65
2022/10/04 13:26:41;;;;;;;;;;;;;;;23.55;55.61;101664.50;5014506;28;3132;-65
2022/10/04 13:29:13;;;;;;;;;;;;;;;23.48;55.39;101663.47;5010387;28;3151;-65
2022/10/04 13:31:44;;;;;;;;;;;;;;;23.49;55.81;101658.44;5008119;28;3548;-59
2022/10/04 13:34:34;;;;;;;;;;;;;;;23.35;56.22;101655.63;5004939;28;2956;-63